Time;durP1;ratioP1;P1;durP2;ratioP2;P2;SDS_P1;SDS_P2;PMS_P1;PMS_P2;Temp;Humidity;BMP_temperature;BMP_pressure;BME280_temperature;BME280_humidity;BME280_pressure;Samples;Min_cycle;Max_cycle;Signal;HPM_P1;HPM_P2
2021/09/08 00:00:32;;;;;;;;;;;18.00;99.90;;;;;;5116579;28;19923;-80
2021/09/08 00:03:00;;;;;;;;;;;18.00;99.90;;;;;;5116023;28;19924;-75
2021/09/08 00:05:28;;;;;;;;;;;18.00;99.90;;;;;;5116369;28;19971;-76
2021/09/08 00:07:56;;;;;;;;;;;18.00;99.90;;;;;;5116112;28;19924;-76
2021/09/08 00:10:24;;;;;;;;;;;18.00;99.90;;;;;;5116266;28;19934;-77
2021/09/08 00:12:52;;;;;;;;;;;18.00;99.90;;;;;;5116586;28;19924;-77
2021/09/08 00:15:24;;;;;;;;;;;17.90;99.90;;;;;;5116574;28;19924;-76
2021/09/08 00:17:52;;;;;;;;;;;17.90;99.90;;;;;;5114701;28;19924;-77
2021/09/08 00:20:19;;;;;;;;;;;17.90;99.90;;;;;;5116303;28;19924;-77
2021/09/08 00:22:47;;;;;;;;;;;17.90;99.90;;;;;;5115744;28;19932;-77
2021/09/08 00:25:14;;;;;;;;;;;17.90;99.90;;;;;;5116167;28;19924;-77
2021/09/08 00:27:42;;;;;;;;;;;17.90;99.90;;;;;;5115864;28;20263;-77
2021/09/08 00:30:10;;;;;;;;;;;17.80;99.90;;;;;;5116190;28;19949;-76
2021/09/08 00:32:40;;;;;;;;;;;17.80;99.90;;;;;;5116301;27;19924;-77
2021/09/08 00:35:08;;;;;;;;;;;17.80;99.90;;;;;;5116076;28;19928;-77
2021/09/08 00:37:38;;;;;;;;;;;17.70;99.90;;;;;;5115832;28;19931;-77
2021/09/08 00:40:09;;;;;;;;;;;17.70;99.90;;;;;;5115447;28;19949;-76
2021/09/08 00:42:36;;;;;;;;;;;17.70;99.90;;;;;;5116000;28;19927;-76
2021/09/08 00:45:05;;;;;;;;;;;17.70;99.90;;;;;;5115224;28;19924;-76
2021/09/08 00:47:33;;;;;;;;;;;17.70;99.90;;;;;;5115854;28;19924;-77
2021/09/08 00:50:21;;;;;;;;;;;17.70;99.90;;;;;;5115887;28;19924;-77
2021/09/08 00:52:49;;;;;;;;;;;17.70;99.90;;;;;;5115782;28;19923;-77
2021/09/08 00:55:20;;;;;;;;;;;17.70;99.90;;;;;;5115654;28;19927;-76
2021/09/08 00:57:51;;;;;;;;;;;17.60;99.90;;;;;;5115555;28;20225;-77
2021/09/08 01:00:18;;;;;;;;;;;17.60;99.90;;;;;;5115754;28;20248;-77
2021/09/08 01:02:46;;;;;;;;;;;17.60;99.90;;;;;;5115395;28;19935;-77
2021/09/08 01:05:15;;;;;;;;;;;17.60;99.90;;;;;;5115757;28;19938;-76
2021/09/08 01:07:44;;;;;;;;;;;17.60;99.90;;;;;;5115715;28;19930;-77
2021/09/08 01:10:13;;;;;;;;;;;17.60;99.90;;;;;;5115660;28;20260;-78
2021/09/08 01:12:40;;;;;;;;;;;17.60;99.90;;;;;;5115524;28;19930;-77
2021/09/08 01:15:07;;;;;;;;;;;17.60;99.90;;;;;;5115500;28;19970;-77
2021/09/08 01:17:34;;;;;;;;;;;17.60;99.90;;;;;;5114893;28;19923;-77
2021/09/08 01:20:01;;;;;;;;;;;17.50;99.90;;;;;;5115250;28;20264;-77
2021/09/08 01:22:30;;;;;;;;;;;17.50;99.90;;;;;;5115150;28;19924;-77
2021/09/08 01:25:03;;;;;;;;;;;17.50;99.90;;;;;;5115383;28;19989;-77
2021/09/08 01:27:32;;;;;;;;;;;17.40;99.90;;;;;;5115342;28;19924;-77
2021/09/08 01:30:00;;;;;;;;;;;17.40;99.90;;;;;;5115392;28;19924;-77
2021/09/08 01:32:33;;;;;;;;;;;17.40;99.90;;;;;;5115262;28;19932;-77
2021/09/08 01:35:04;;;;;;;;;;;17.30;99.90;;;;;;5115268;28;20022;-77
2021/09/08 01:37:31;;;;;;;;;;;17.30;99.90;;;;;;5114903;28;19924;-77
2021/09/08 01:40:03;;;;;;;;;;;17.30;99.90;;;;;;5111673;28;19924;-77
2021/09/08 01:42:31;;;;;;;;;;;17.30;99.90;;;;;;5115431;28;19927;-77
2021/09/08 01:44:59;;;;;;;;;;;17.30;99.90;;;;;;5115186;28;20352;-77
2021/09/08 01:47:29;;;;;;;;;;;17.20;99.90;;;;;;5115223;28;19934;-77
2021/09/08 01:49:57;;;;;;;;;;;17.20;99.90;;;;;;5115338;28;20269;-77
2021/09/08 01:52:24;;;;;;;;;;;17.20;99.90;;;;;;5115158;28;20336;-77
2021/09/08 01:54:53;;;;;;;;;;;17.20;99.90;;;;;;5116100;28;19924;-77
2021/09/08 01:57:22;;;;;;;;;;;17.20;99.90;;;;;;5118933;28;19934;-77
2021/09/08 01:59:50;;;;;;;;;;;17.10;99.90;;;;;;5118916;28;19924;-77
2021/09/08 02:02:17;;;;;;;;;;;17.10;99.90;;;;;;5119139;28;20271;-77
2021/09/08 02:04:45;;;;;;;;;;;17.10;99.90;;;;;;5118891;28;19923;-77
2021/09/08 02:07:13;;;;;;;;;;;17.10;99.90;;;;;;5118819;28;19924;-77
2021/09/08 02:09:41;;;;;;;;;;;17.10;99.90;;;;;;5118788;28;19926;-78
2021/09/08 02:12:08;;;;;;;;;;;17.10;99.90;;;;;;5118764;28;19924;-77
2021/09/08 02:14:36;;;;;;;;;;;17.00;99.90;;;;;;5118521;28;19931;-77
2021/09/08 02:17:03;;;;;;;;;;;17.10;99.90;;;;;;5118423;28;19935;-77
2021/09/08 02:19:30;;;;;;;;;;;17.00;99.90;;;;;;5118310;28;19938;-77
2021/09/08 02:21:57;;;;;;;;;;;17.00;99.90;;;;;;5117737;28;19947;-77
2021/09/08 02:24:23;;;;;;;;;;;17.00;99.90;;;;;;5117851;28;19924;-77
2021/09/08 02:26:50;;;;;;;;;;;17.00;99.90;;;;;;5118606;28;19924;-77
2021/09/08 02:29:17;;;;;;;;;;;17.00;99.90;;;;;;5118351;27;20389;-77
2021/09/08 02:31:45;;;;;;;;;;;16.90;99.90;;;;;;5118233;28;19934;-77
2021/09/08 02:34:12;;;;;;;;;;;16.90;99.90;;;;;;5118404;28;19927;-77
2021/09/08 02:36:39;;;;;;;;;;;16.90;99.90;;;;;;5118009;27;20324;-78
2021/09/08 02:39:06;;;;;;;;;;;16.90;99.90;;;;;;5117968;28;19924;-77
2021/09/08 02:41:33;;;;;;;;;;;16.90;99.90;;;;;;5118383;28;20269;-77
2021/09/08 02:44:00;;;;;;;;;;;16.90;99.90;;;;;;5118160;28;19931;-77
2021/09/08 02:46:27;;;;;;;;;;;16.90;99.90;;;;;;5118072;28;19934;-77
2021/09/08 02:48:55;;;;;;;;;;;16.90;99.90;;;;;;5118185;28;19935;-77
2021/09/08 02:51:22;;;;;;;;;;;16.80;99.90;;;;;;5118008;28;19923;-77
2021/09/08 02:53:49;;;;;;;;;;;16.80;99.90;;;;;;5118162;28;19923;-78
2021/09/08 02:56:16;;;;;;;;;;;16.80;99.90;;;;;;5117763;28;20263;-78
2021/09/08 02:58:42;;;;;;;;;;;16.80;99.90;;;;;;5117650;28;19934;-78
2021/09/08 03:01:10;;;;;;;;;;;16.80;99.90;;;;;;5117691;28;19924;-77
2021/09/08 03:03:36;;;;;;;;;;;16.70;99.90;;;;;;5117718;28;20263;-78
2021/09/08 03:06:05;;;;;;;;;;;16.70;99.90;;;;;;5117131;28;19924;-77
2021/09/08 03:08:32;;;;;;;;;;;16.70;99.90;;;;;;5117875;28;19924;-77
2021/09/08 03:10:58;;;;;;;;;;;16.70;99.90;;;;;;5117601;28;19982;-77
2021/09/08 03:13:25;;;;;;;;;;;16.70;99.90;;;;;;5117567;28;20352;-77
2021/09/08 03:15:52;;;;;;;;;;;16.70;99.90;;;;;;5117487;28;19924;-78
2021/09/08 03:18:19;;;;;;;;;;;16.70;99.90;;;;;;5117351;28;19923;-78
2021/09/08 03:20:46;;;;;;;;;;;16.70;99.90;;;;;;5117236;28;20363;-78
2021/09/08 03:23:14;;;;;;;;;;;16.70;99.90;;;;;;5117299;28;19938;-77
2021/09/08 03:25:41;;;;;;;;;;;16.70;99.90;;;;;;5117378;28;19931;-78
2021/09/08 03:28:07;;;;;;;;;;;16.70;99.90;;;;;;5117189;28;20369;-78
2021/09/08 03:30:34;;;;;;;;;;;16.70;99.90;;;;;;5117111;28;19924;-77
2021/09/08 03:33:01;;;;;;;;;;;16.70;99.90;;;;;;5117090;28;19934;-77
2021/09/08 03:35:28;;;;;;;;;;;16.70;99.90;;;;;;5116975;28;19927;-77
2021/09/08 03:37:55;;;;;;;;;;;16.70;99.90;;;;;;5117175;28;19923;-77
2021/09/08 03:40:23;;;;;;;;;;;16.70;99.90;;;;;;5116714;28;19946;-77
2021/09/08 03:42:50;;;;;;;;;;;16.70;99.90;;;;;;5116939;28;19931;-77
2021/09/08 03:45:17;;;;;;;;;;;16.70;99.90;;;;;;5116914;28;19923;-78
2021/09/08 03:47:44;;;;;;;;;;;16.70;99.90;;;;;;5116717;28;19923;-78
2021/09/08 03:50:11;;;;;;;;;;;16.60;99.90;;;;;;5116736;28;20255;-78
2021/09/08 03:52:38;;;;;;;;;;;16.60;99.90;;;;;;5116514;28;20275;-78
2021/09/08 03:55:05;;;;;;;;;;;16.60;99.90;;;;;;5116635;28;19930;-78
2021/09/08 03:57:33;;;;;;;;;;;16.60;99.90;;;;;;5116580;28;19935;-77
2021/09/08 04:00:00;;;;;;;;;;;16.60;99.90;;;;;;5116439;28;19931;-77
2021/09/08 04:02:27;;;;;;;;;;;16.60;99.90;;;;;;5116486;28;19934;-77
2021/09/08 04:04:54;;;;;;;;;;;16.60;99.90;;;;;;5116424;28;19924;-78
2021/09/08 04:07:21;;;;;;;;;;;16.60;99.90;;;;;;5116523;28;19989;-77
2021/09/08 04:09:48;;;;;;;;;;;16.60;99.90;;;;;;5116394;28;19928;-78
2021/09/08 04:12:14;;;;;;;;;;;16.60;99.90;;;;;;5116262;28;19931;-77
2021/09/08 04:14:43;;;;;;;;;;;16.60;99.90;;;;;;5116398;28;19923;-77
2021/09/08 04:17:09;;;;;;;;;;;16.60;99.90;;;;;;5116090;28;19924;-78
2021/09/08 04:19:36;;;;;;;;;;;16.60;99.90;;;;;;5115338;28;19924;-78
2021/09/08 04:22:03;;;;;;;;;;;16.60;99.90;;;;;;5116276;28;19924;-78
2021/09/08 04:24:30;;;;;;;;;;;16.60;99.90;;;;;;5116132;28;20048;-78
2021/09/08 04:26:57;;;;;;;;;;;16.50;99.90;;;;;;5116088;28;19924;-78
2021/09/08 04:29:24;;;;;;;;;;;16.50;99.90;;;;;;5116267;28;19923;-77
2021/09/08 04:31:52;;;;;;;;;;;16.50;99.90;;;;;;5116038;28;19924;-78
2021/09/08 04:34:19;;;;;;;;;;;16.50;99.90;;;;;;5115959;28;19931;-78
2021/09/08 04:36:45;;;;;;;;;;;16.50;99.90;;;;;;5116116;28;19924;-78
2021/09/08 04:39:12;;;;;;;;;;;16.50;99.90;;;;;;5115657;28;19935;-78
2021/09/08 04:41:39;;;;;;;;;;;16.50;99.90;;;;;;5115942;28;19924;-78
2021/09/08 04:44:06;;;;;;;;;;;16.40;99.90;;;;;;5115805;28;19923;-77
2021/09/08 04:46:33;;;;;;;;;;;16.40;99.90;;;;;;5115799;28;19923;-78
2021/09/08 04:49:01;;;;;;;;;;;16.40;99.90;;;;;;5115699;28;19938;-78
2021/09/08 04:51:28;;;;;;;;;;;16.40;99.90;;;;;;5115873;28;19951;-78
2021/09/08 04:53:55;;;;;;;;;;;16.40;99.90;;;;;;5115624;28;20340;-77
2021/09/08 04:56:21;;;;;;;;;;;16.40;99.90;;;;;;5115665;28;19924;-77
2021/09/08 04:58:48;;;;;;;;;;;16.30;99.90;;;;;;5115550;28;19928;-78
2021/09/08 05:01:15;;;;;;;;;;;16.40;99.90;;;;;;5115602;28;19928;-78
2021/09/08 05:03:42;;;;;;;;;;;16.30;99.90;;;;;;5115598;28;19924;-77
2021/09/08 05:06:10;;;;;;;;;;;16.30;99.90;;;;;;5115474;28;19924;-77
2021/09/08 05:08:37;;;;;;;;;;;16.30;99.90;;;;;;5115560;28;19935;-77
2021/09/08 05:11:04;;;;;;;;;;;16.30;99.90;;;;;;5115477;28;20347;-78
2021/09/08 05:13:31;;;;;;;;;;;16.30;99.90;;;;;;5115377;28;19934;-78
2021/09/08 05:15:58;;;;;;;;;;;16.30;99.90;;;;;;5115736;28;19943;-77
2021/09/08 05:18:25;;;;;;;;;;;16.30;99.90;;;;;;5115605;28;19945;-77
2021/09/08 05:20:51;;;;;;;;;;;16.30;99.90;;;;;;5115591;28;19924;-78
2021/09/08 05:23:20;;;;;;;;;;;16.30;99.90;;;;;;5115371;28;19927;-78
2021/09/08 05:25:46;;;;;;;;;;;16.20;99.90;;;;;;5115541;28;20264;-78
2021/09/08 05:28:13;;;;;;;;;;;16.20;99.90;;;;;;5115291;28;19924;-78
2021/09/08 05:30:40;;;;;;;;;;;16.30;99.90;;;;;;5117954;28;19930;-77
2021/09/08 05:33:07;;;;;;;;;;;16.20;99.90;;;;;;5119674;28;19923;-77
2021/09/08 05:35:34;;;;;;;;;;;16.30;99.90;;;;;;5119327;28;20328;-77
2021/09/08 05:38:01;;;;;;;;;;;16.20;99.90;;;;;;5119269;28;19924;-78
2021/09/08 05:40:29;;;;;;;;;;;16.30;99.90;;;;;;5119053;28;20011;-78
2021/09/08 05:42:56;;;;;;;;;;;16.30;99.90;;;;;;5119249;28;19934;-77
2021/09/08 05:45:23;;;;;;;;;;;16.30;99.90;;;;;;5119293;28;19924;-78
2021/09/08 05:47:50;;;;;;;;;;;16.30;99.90;;;;;;5119346;28;19967;-78
2021/09/08 05:50:17;;;;;;;;;;;16.30;99.90;;;;;;5119048;28;20352;-78
2021/09/08 05:52:44;;;;;;;;;;;16.30;99.90;;;;;;5119035;28;19943;-78
2021/09/08 05:55:11;;;;;;;;;;;16.30;99.90;;;;;;5119005;28;19934;-78
2021/09/08 05:57:39;;;;;;;;;;;16.30;99.90;;;;;;5118830;28;19924;-77
2021/09/08 06:00:06;;;;;;;;;;;16.30;99.90;;;;;;5118883;28;20236;-77
2021/09/08 06:02:33;;;;;;;;;;;16.30;99.90;;;;;;5119014;28;19924;-78
2021/09/08 06:05:00;;;;;;;;;;;16.30;99.90;;;;;;5118872;28;19935;-78
2021/09/08 06:07:27;;;;;;;;;;;16.30;99.90;;;;;;5119216;28;19924;-78
2021/09/08 06:09:54;;;;;;;;;;;16.30;99.90;;;;;;5119017;28;19934;-78
2021/09/08 06:12:20;;;;;;;;;;;16.30;99.90;;;;;;5118721;28;20225;-77
2021/09/08 06:14:49;;;;;;;;;;;16.30;99.90;;;;;;5118600;28;19923;-78
2021/09/08 06:17:15;;;;;;;;;;;16.30;99.90;;;;;;5118578;28;19924;-78
2021/09/08 06:19:42;;;;;;;;;;;16.20;99.90;;;;;;5118469;28;19928;-78
2021/09/08 06:22:09;;;;;;;;;;;16.30;99.90;;;;;;5118457;28;19928;-78
2021/09/08 06:24:36;;;;;;;;;;;16.30;99.90;;;;;;5118546;28;19924;-78
2021/09/08 06:27:04;;;;;;;;;;;16.30;99.90;;;;;;5118319;27;19924;-77
2021/09/08 06:29:32;;;;;;;;;;;16.40;99.90;;;;;;5118802;28;19924;-77
2021/09/08 06:32:02;;;;;;;;;;;16.40;99.90;;;;;;5118244;28;19928;-78
2021/09/08 06:34:28;;;;;;;;;;;16.40;99.90;;;;;;5118229;28;19924;-78
2021/09/08 06:36:57;;;;;;;;;;;16.40;99.90;;;;;;5118196;28;19924;-78
2021/09/08 06:39:24;;;;;;;;;;;16.50;99.90;;;;;;5117818;28;19935;-78
2021/09/08 06:41:51;;;;;;;;;;;16.50;99.90;;;;;;5117555;28;19977;-77
2021/09/08 06:44:22;;;;;;;;;;;16.50;99.90;;;;;;5118301;28;19978;-78
2021/09/08 06:46:49;;;;;;;;;;;16.60;99.90;;;;;;5118235;28;19934;-79
2021/09/08 06:49:17;;;;;;;;;;;16.60;99.90;;;;;;5118016;28;19934;-78
2021/09/08 06:51:44;;;;;;;;;;;16.70;99.90;;;;;;5117943;28;20363;-78
2021/09/08 06:54:11;;;;;;;;;;;16.80;99.90;;;;;;5117486;28;19934;-78
2021/09/08 06:56:38;;;;;;;;;;;16.80;99.90;;;;;;5118000;28;19935;-79
2021/09/08 06:59:05;;;;;;;;;;;16.90;99.90;;;;;;5118008;28;19934;-79
2021/09/08 07:01:32;;;;;;;;;;;17.00;99.90;;;;;;5117963;28;19923;-78
2021/09/08 07:03:58;;;;;;;;;;;17.10;99.90;;;;;;5117761;28;19930;-79
2021/09/08 07:06:27;;;;;;;;;;;17.20;99.90;;;;;;5117664;28;19924;-78
2021/09/08 07:08:54;;;;;;;;;;;17.30;99.90;;;;;;5117746;28;19924;-78
2021/09/08 07:11:21;;;;;;;;;;;17.40;99.90;;;;;;5117853;28;20259;-79
2021/09/08 07:13:48;;;;;;;;;;;17.40;99.90;;;;;;5117599;28;20259;-81
2021/09/08 07:16:15;;;;;;;;;;;17.50;99.90;;;;;;5117476;28;19930;-78
2021/09/08 07:18:42;;;;;;;;;;;17.60;99.90;;;;;;5117633;28;19924;-78
2021/09/08 07:21:08;;;;;;;;;;;17.90;99.90;;;;;;5117370;28;19924;-78
2021/09/08 07:23:37;;;;;;;;;;;19.10;99.90;;;;;;5117471;28;19931;-79
2021/09/08 07:26:03;;;;;;;;;;;20.90;99.90;;;;;;5117636;28;19923;-80
2021/09/08 07:28:30;;;;;;;;;;;22.70;99.90;;;;;;5117291;28;20302;-80
2021/09/08 07:30:57;;;;;;;;;;;23.40;99.90;;;;;;5117222;28;19932;-80
2021/09/08 07:33:24;;;;;;;;;;;23.30;99.90;;;;;;5117295;28;19934;-80
2021/09/08 07:35:51;;;;;;;;;;;22.70;99.90;;;;;;5117172;28;20348;-80
2021/09/08 07:38:18;;;;;;;;;;;22.20;99.90;;;;;;5116923;28;19934;-79
2021/09/08 07:40:46;;;;;;;;;;;21.60;99.90;;;;;;5116895;28;19924;-80
2021/09/08 07:43:13;;;;;;;;;;;21.10;99.90;;;;;;5116959;28;20275;-80
2021/09/08 07:45:40;;;;;;;;;;;20.70;99.90;;;;;;5116961;28;19930;-80
2021/09/08 07:48:06;;;;;;;;;;;20.50;99.90;;;;;;5117056;27;19934;-80
2021/09/08 07:50:34;;;;;;;;;;;20.20;99.90;;;;;;5116906;28;19928;-80
2021/09/08 07:53:02;;;;;;;;;;;20.10;99.90;;;;;;5116651;28;19989;-80
2021/09/08 07:55:29;;;;;;;;;;;20.00;99.90;;;;;;5116891;28;19934;-80
2021/09/08 07:57:57;;;;;;;;;;;20.00;99.90;;;;;;5116746;28;20087;-80
2021/09/08 08:00:24;;;;;;;;;;;20.00;99.90;;;;;;5116661;28;19930;-80
2021/09/08 08:02:51;;;;;;;;;;;20.00;99.90;;;;;;5116501;28;19937;-80
2021/09/08 08:05:18;;;;;;;;;;;20.00;99.90;;;;;;5116920;28;19923;-80
2021/09/08 08:07:45;;;;;;;;;;;20.10;99.90;;;;;;5116579;28;20351;-80
2021/09/08 08:10:12;;;;;;;;;;;20.10;99.90;;;;;;5116356;28;20377;-80
2021/09/08 08:12:39;;;;;;;;;;;20.10;99.90;;;;;;5116326;28;19924;-80
2021/09/08 08:15:08;;;;;;;;;;;20.10;99.90;;;;;;5116502;27;19934;-80
2021/09/08 08:17:35;;;;;;;;;;;20.10;99.90;;;;;;5116257;28;19934;-80
2021/09/08 08:20:04;;;;;;;;;;;20.20;99.90;;;;;;5116389;28;19924;-80
2021/09/08 08:22:30;;;;;;;;;;;20.30;99.90;;;;;;5116358;28;20275;-80
2021/09/08 08:24:57;;;;;;;;;;;20.30;99.90;;;;;;5116130;28;19923;-80
2021/09/08 08:27:24;;;;;;;;;;;20.30;99.90;;;;;;5116118;28;19924;-80
2021/09/08 08:29:51;;;;;;;;;;;20.40;99.90;;;;;;5116222;28;19927;-80
2021/09/08 08:32:19;;;;;;;;;;;20.40;99.90;;;;;;5116260;28;19923;-79
2021/09/08 08:34:46;;;;;;;;;;;20.40;99.90;;;;;;5116189;28;19924;-80
2021/09/08 08:37:13;;;;;;;;;;;20.30;99.90;;;;;;5116253;28;19955;-80
2021/09/08 08:39:39;;;;;;;;;;;20.30;99.90;;;;;;5115711;28;20366;-80
2021/09/08 08:42:12;;;;;;;;;;;20.30;99.90;;;;;;5115893;28;19934;-80
2021/09/08 08:44:39;;;;;;;;;;;20.20;99.90;;;;;;5115859;28;19924;-80
2021/09/08 08:47:06;;;;;;;;;;;20.20;99.90;;;;;;5116234;28;19935;-80
2021/09/08 08:49:34;;;;;;;;;;;20.30;99.90;;;;;;5116150;28;19982;-80
2021/09/08 08:52:01;;;;;;;;;;;20.30;99.90;;;;;;5115936;28;19951;-80
2021/09/08 08:54:28;;;;;;;;;;;20.30;99.90;;;;;;5115778;28;19924;-80
2021/09/08 08:56:55;;;;;;;;;;;20.30;99.90;;;;;;5115786;28;19924;-80
2021/09/08 08:59:22;;;;;;;;;;;20.40;99.90;;;;;;5115727;28;19928;-80
2021/09/08 09:01:48;;;;;;;;;;;20.50;99.90;;;;;;5115912;28;19934;-80
2021/09/08 09:04:17;;;;;;;;;;;20.60;99.90;;;;;;5115363;28;19924;-79
2021/09/08 09:06:47;;;;;;;;;;;20.70;99.90;;;;;;5115470;28;19923;-80
2021/09/08 09:09:14;;;;;;;;;;;20.80;99.90;;;;;;5115621;28;19924;-80
2021/09/08 09:11:41;;;;;;;;;;;20.90;99.90;;;;;;5115703;28;19939;-80
2021/09/08 09:14:09;;;;;;;;;;;21.00;99.90;;;;;;5115460;28;19923;-80
2021/09/08 09:16:36;;;;;;;;;;;21.00;99.90;;;;;;5115825;28;19930;-80
2021/09/08 09:19:02;;;;;;;;;;;21.10;99.90;;;;;;5115311;28;20359;-79
2021/09/08 09:21:29;;;;;;;;;;;21.20;99.90;;;;;;5115392;28;20381;-79
2021/09/08 09:23:58;;;;;;;;;;;21.30;99.90;;;;;;5115497;28;19924;-79
2021/09/08 09:26:25;;;;;;;;;;;21.30;99.90;;;;;;5115483;28;19924;-79
2021/09/08 09:28:54;;;;;;;;;;;21.30;99.90;;;;;;5115396;28;19924;-80
2021/09/08 09:31:22;;;;;;;;;;;21.40;99.90;;;;;;5115669;28;19924;-80
2021/09/08 09:33:53;;;;;;;;;;;21.50;99.90;;;;;;5115691;28;20260;-79
2021/09/08 09:36:21;;;;;;;;;;;21.60;99.90;;;;;;5115372;28;19932;-80
2021/09/08 09:38:48;;;;;;;;;;;21.70;99.90;;;;;;5115646;28;19924;-80
2021/09/08 09:41:18;;;;;;;;;;;21.70;99.90;;;;;;5074740;28;19924;-80
2021/09/08 09:43:45;;;;;;;;;;;21.80;99.90;;;;;;5074971;28;20314;-80
2021/09/08 09:46:12;;;;;;;;;;;21.80;99.90;;;;;;5074591;28;19939;-80
2021/09/08 09:48:39;;;;;;;;;;;22.00;99.90;;;;;;5074669;28;19935;-80
2021/09/08 09:51:05;;;;;;;;;;;22.10;99.90;;;;;;5074493;28;19924;-80
2021/09/08 09:53:33;;;;;;;;;;;22.20;99.90;;;;;;5074540;28;19924;-80
2021/09/08 09:56:02;;;;;;;;;;;22.20;99.90;;;;;;5074531;28;19924;-79
2021/09/08 09:58:31;;;;;;;;;;;22.20;99.90;;;;;;5074557;28;19935;-79
2021/09/08 10:00:59;;;;;;;;;;;22.30;99.90;;;;;;5074660;28;19935;-79
2021/09/08 10:03:30;;;;;;;;;;;22.30;99.90;;;;;;5074506;28;19931;-80
2021/09/08 10:06:01;;;;;;;;;;;22.30;99.90;;;;;;5074927;28;20027;-80
2021/09/08 10:08:29;;;;;;;;;;;22.40;99.90;;;;;;5074593;28;19928;-80
2021/09/08 10:10:57;;;;;;;;;;;22.40;99.90;;;;;;5074690;28;19951;-80
2021/09/08 10:13:26;;;;;;;;;;;22.40;99.90;;;;;;5074615;28;19932;-80
2021/09/08 10:15:57;;;;;;;;;;;22.50;99.90;;;;;;5074500;28;19924;-80
2021/09/08 10:18:26;;;;;;;;;;;22.50;99.90;;;;;;5077664;28;19924;-79
2021/09/08 10:20:54;;;;;;;;;;;22.60;99.90;;;;;;5077846;28;19934;-80
2021/09/08 10:23:22;;;;;;;;;;;22.60;99.90;;;;;;5077871;28;19989;-79
2021/09/08 10:25:55;;;;;;;;;;;22.70;99.90;;;;;;5077987;28;19925;-79
2021/09/08 10:28:25;;;;;;;;;;;22.80;99.90;;;;;;5077808;28;20324;-79
2021/09/08 10:30:53;;;;;;;;;;;22.80;99.90;;;;;;5077794;28;20388;-80
2021/09/08 10:33:23;;;;;;;;;;;22.80;99.90;;;;;;5077658;28;19935;-79
2021/09/08 10:35:51;;;;;;;;;;;22.90;99.90;;;;;;5078183;28;19925;-80
2021/09/08 10:38:23;;;;;;;;;;;22.90;99.90;;;;;;5077593;28;19932;-80
2021/09/08 10:40:51;;;;;;;;;;;22.90;99.90;;;;;;5111366;28;19932;-80
2021/09/08 10:43:29;;;;;;;;;;;22.90;99.90;;;;;;5117378;28;20367;-80
2021/09/08 10:45:57;;;;;;;;;;;22.90;99.90;;;;;;5118181;28;20310;-79
2021/09/08 10:48:41;;;;;;;;;;;23.10;99.90;;;;;;5117964;28;20332;-79
2021/09/08 10:51:10;;;;;;;;;;;23.20;99.90;;;;;;5118090;28;19924;-79
2021/09/08 10:53:41;;;;;;;;;;;23.30;99.90;;;;;;5117999;28;19942;-79
2021/09/08 10:56:09;;;;;;;;;;;23.40;99.90;;;;;;5117978;28;20336;-79
2021/09/08 10:58:54;;;;;;;;;;;23.40;99.90;;;;;;5117882;28;19988;-79
2021/09/08 11:01:23;;;;;;;;;;;23.50;99.90;;;;;;5117496;28;19930;-79
2021/09/08 11:03:52;;;;;;;;;;;23.50;99.90;;;;;;5117731;28;20259;-79
2021/09/08 11:06:32;;;;;;;;;;;23.60;99.90;;;;;;5117781;28;19924;-79
2021/09/08 11:09:01;;;;;;;;;;;23.70;99.90;;;;;;5117568;28;20317;-78
2021/09/08 11:11:29;;;;;;;;;;;23.80;99.90;;;;;;5117778;28;19924;-79
2021/09/08 11:13:57;;;;;;;;;;;23.80;99.90;;;;;;5117846;28;20244;-79
2021/09/08 11:16:26;;;;;;;;;;;23.70;99.90;;;;;;5117724;28;19923;-78
2021/09/08 11:18:57;;;;;;;;;;;23.60;99.90;;;;;;5117451;28;19927;-79
2021/09/08 11:21:25;;;;;;;;;;;23.60;99.90;;;;;;5117387;28;19934;-78
2021/09/08 11:24:02;;;;;;;;;;;23.60;99.90;;;;;;5117331;28;20417;-79
2021/09/08 11:26:31;;;;;;;;;;;23.70;99.90;;;;;;5117580;28;19924;-78
2021/09/08 11:29:00;;;;;;;;;;;23.70;99.90;;;;;;5116829;28;20354;-79
2021/09/08 11:31:32;;;;;;;;;;;23.90;99.90;;;;;;5117255;28;19924;-78
2021/09/08 11:34:02;;;;;;;;;;;23.90;99.90;;;;;;5117331;28;20304;-78
2021/09/08 11:36:30;;;;;;;;;;;23.90;99.90;;;;;;5117442;28;19935;-78
2021/09/08 11:38:58;;;;;;;;;;;23.90;99.90;;;;;;5116625;28;19935;-79
2021/09/08 11:41:26;;;;;;;;;;;24.00;99.90;;;;;;5116903;28;20026;-78
2021/09/08 11:43:54;;;;;;;;;;;24.10;99.90;;;;;;5116973;28;19924;-78
2021/09/08 11:46:21;;;;;;;;;;;24.20;99.90;;;;;;5116614;28;19923;-78
2021/09/08 11:48:49;;;;;;;;;;;24.20;99.90;;;;;;5115233;27;19924;-78
2021/09/08 11:51:18;;;;;;;;;;;24.20;99.90;;;;;;5116778;28;19934;-78
2021/09/08 11:53:44;;;;;;;;;;;24.20;99.90;;;;;;5116960;28;19924;-78
2021/09/08 11:56:12;;;;;;;;;;;24.10;99.90;;;;;;5116700;28;20343;-79
2021/09/08 11:58:39;;;;;;;;;;;24.00;99.90;;;;;;5116560;28;19923;-78
2021/09/08 12:01:07;;;;;;;;;;;23.90;99.90;;;;;;5116683;28;19924;-78
2021/09/08 12:03:39;;;;;;;;;;;23.90;99.90;;;;;;5116614;28;20348;-78
2021/09/08 12:06:10;;;;;;;;;;;24.00;99.90;;;;;;5116822;28;19993;-78
2021/09/08 12:08:40;;;;;;;;;;;24.00;99.90;;;;;;5116458;28;20262;-78
2021/09/08 12:11:09;;;;;;;;;;;24.20;99.90;;;;;;5116216;28;20236;-77
2021/09/08 12:13:36;;;;;;;;;;;24.30;99.90;;;;;;5116463;28;19924;-78
2021/09/08 12:16:04;;;;;;;;;;;24.30;99.90;;;;;;5116364;28;20363;-82
2021/09/08 12:18:31;;;;;;;;;;;24.30;99.90;;;;;;5116444;28;19924;-74
2021/09/08 12:21:14;;;;;;;;;;;24.40;99.90;;;;;;5116160;28;19924;-79
2021/09/08 12:23:43;;;;;;;;;;;24.40;99.90;;;;;;5113758;28;19935;-74
2021/09/08 12:26:13;;;;;;;;;;;24.50;99.90;;;;;;5116194;28;19924;-73
2021/09/08 12:29:11;;;;;;;;;;;24.50;99.90;;;;;;5116059;28;19924;-74
2021/09/08 12:31:49;;;;;;;;;;;24.50;99.90;;;;;;5115883;28;20274;-72
2021/09/08 12:34:16;;;;;;;;;;;24.60;99.90;;;;;;5116020;28;19924;-74
2021/09/08 12:36:44;;;;;;;;;;;24.60;99.90;;;;;;5116375;28;20355;-74
2021/09/08 12:39:14;;;;;;;;;;;24.60;99.90;;;;;;5114699;28;19932;-74
2021/09/08 12:41:52;;;;;;;;;;;24.50;99.90;;;;;;5115931;28;19930;-73
2021/09/08 12:44:25;;;;;;;;;;;24.50;99.90;;;;;;5115832;28;19924;-83
2021/09/08 12:46:53;;;;;;;;;;;24.60;99.90;;;;;;5115827;28;19924;-76
2021/09/08 12:49:22;;;;;;;;;;;24.70;99.90;;;;;;5116075;28;20016;-75
2021/09/08 12:51:50;;;;;;;;;;;24.70;99.90;;;;;;5115774;28;20255;-74
2021/09/08 12:54:20;;;;;;;;;;;24.80;99.90;;;;;;5115828;28;19985;-75
2021/09/08 12:56:48;;;;;;;;;;;24.80;99.90;;;;;;5115607;28;19935;-74
2021/09/08 12:59:19;;;;;;;;;;;24.80;99.90;;;;;;5115665;28;19934;-74
2021/09/08 13:01:47;;;;;;;;;;;24.90;99.90;;;;;;5115589;28;19932;-74
2021/09/08 13:04:15;;;;;;;;;;;24.90;99.90;;;;;;5115738;28;19975;-74
2021/09/08 13:06:46;;;;;;;;;;;24.80;99.90;;;;;;5115584;28;19931;-75
2021/09/08 13:09:14;;;;;;;;;;;24.90;99.90;;;;;;5115444;28;20026;-75
2021/09/08 13:11:47;;;;;;;;;;;24.90;99.90;;;;;;5115432;28;20267;-75
2021/09/08 13:14:16;;;;;;;;;;;25.00;99.90;;;;;;5115417;28;19934;-75
2021/09/08 13:16:44;;;;;;;;;;;24.90;99.90;;;;;;5115404;28;19942;-75
2021/09/08 13:19:14;;;;;;;;;;;25.00;99.90;;;;;;5115622;28;19924;-74
2021/09/08 13:21:42;;;;;;;;;;;25.00;99.90;;;;;;5115525;28;20031;-75
2021/09/08 13:24:13;;;;;;;;;;;25.00;99.90;;;;;;5115407;28;19942;-75
2021/09/08 13:26:43;;;;;;;;;;;25.10;99.90;;;;;;5115449;28;19935;-75
2021/09/08 13:29:11;;;;;;;;;;;25.20;99.90;;;;;;5115275;28;19935;-76
2021/09/08 13:31:39;;;;;;;;;;;25.20;99.90;;;;;;5115489;28;19931;-77
2021/09/08 13:34:09;;;;;;;;;;;25.20;99.90;;;;;;5115342;28;19989;-77
2021/09/08 13:36:37;;;;;;;;;;;25.30;99.90;;;;;;5115419;28;19923;-76
2021/09/08 13:39:05;;;;;;;;;;;25.30;99.90;;;;;;5115068;28;19924;-77
2021/09/08 13:41:32;;;;;;;;;;;25.20;99.90;;;;;;5115303;28;20325;-76
2021/09/08 13:46:44;;;;;;;;;;;25.20;99.90;;;;;;5115579;28;19931;-76
2021/09/08 13:49:12;;;;;;;;;;;25.10;99.90;;;;;;5115375;28;19935;-76
2021/09/08 13:51:40;;;;;;;;;;;25.10;99.90;;;;;;5117684;28;20377;-76
2021/09/08 13:54:08;;;;;;;;;;;25.10;99.90;;;;;;5119096;28;19924;-76
2021/09/08 13:56:44;;;;;;;;;;;25.10;99.90;;;;;;5119252;28;20266;-76
2021/09/08 13:59:14;;;;;;;;;;;25.10;99.90;;;;;;5119384;28;19924;-76
2021/09/08 14:01:42;;;;;;;;;;;25.20;99.90;;;;;;5118957;28;19924;-76
2021/09/08 14:04:10;;;;;;;;;;;25.20;99.90;;;;;;5119013;28;19934;-76
2021/09/08 14:06:39;;;;;;;;;;;25.20;99.90;;;;;;5118867;28;19932;-76
2021/09/08 14:09:07;;;;;;;;;;;25.30;99.90;;;;;;5118880;28;19934;-76
2021/09/08 14:11:35;;;;;;;;;;;25.30;99.90;;;;;;5119025;28;19923;-76
2021/09/08 14:14:03;;;;;;;;;;;25.30;99.90;;;;;;5118622;28;20355;-76
2021/09/08 14:16:34;;;;;;;;;;;25.20;99.90;;;;;;5118817;28;20381;-76
2021/09/08 14:19:02;;;;;;;;;;;25.20;99.90;;;;;;5118823;28;19924;-76
2021/09/08 14:21:30;;;;;;;;;;;25.10;99.90;;;;;;5118566;28;20255;-76
2021/09/08 14:23:58;;;;;;;;;;;25.10;99.90;;;;;;5118809;28;20007;-76